Overview Statistics Trail Chart Weather Telemetry Raw packets
 

This is the latest recevied weather packets stored in our database for station/object KLEMETTI. If no packets are shown the sender has not sent any weather packets the latest 10 day(s).

<< 1 2 3 4 5 6 7 >>
Time Temp. Humidity Pressure Rain* Wind** Luminosity Snow
1788553493 12.22° C 93% 996 hPa 0 mm - - -
1788551092 12.78° C 92% 996.2 hPa 0 mm - - -
1788549681 12.22° C 93% 996.4 hPa 0 mm - - -
1788548691 12.78° C 89% 996.6 hPa 0 mm - - -
1788547282 12.78° C 88% 996.7 hPa 0 mm - - -
1788546292 12.78° C 88% 996.7 hPa 0 mm - - -
1788543890 13.33° C 86% 996.6 hPa 0 mm - - -
1788542690 13.33° C 86% 996.7 hPa 0 mm - - -
1788541491 13.33° C 84% 996.7 hPa 0 mm - - -
1788540081 13.89° C 81% 996.7 hPa 0 mm - - -
1788538881 14.44° C 76% 996.6 hPa 0 mm - - -
1788537892 14.44° C 75% 996.6 hPa 0 mm - - -
1788536690 16.11° C 66% 996.8 hPa 0 mm - - -
1788535490 16.11° C 63% 997 hPa 0 mm - - -
1788534289 16.11° C 62% 996.9 hPa 0 mm - - -
1788533092 16.11° C 62% 997 hPa 0 mm - - -
1788531890 16.11° C 62% 997.1 hPa 0 mm - - -
1788530481 16.11° C 59% 997.2 hPa 0.25 mm - - -
1788527088 16.67° C 59% 997.3 hPa 0.25 mm - - -
1788525890 16.11° C 63% 997.3 hPa 0 mm - - -
1788523490 16.11° C 71% 997.5 hPa 0 mm - - -
1788522080 17.22° C 61% 997.6 hPa 0 mm - - -
1788521088 17.22° C 58% 997.8 hPa 0 mm - - -
1788519890 16.67° C 57% 998 hPa 0 mm - - -
1788518689 16.67° C 57% 998.1 hPa 0 mm - - -

* Rain latest hour (hover to see other rain measurements)
** Current wind speed in m/s (hover to see current wind gust speed)